createdAt,value
2018-10-17T00:00:47.324Z,17.65
2018-10-17T00:03:15.638Z,12.85
2018-10-17T00:05:43.970Z,13.08
2018-10-17T00:08:12.284Z,11.18
2018-10-17T00:10:40.616Z,15.05
2018-10-17T00:13:08.994Z,12.63
2018-10-17T00:15:37.771Z,12.00
2018-10-17T00:18:06.120Z,9.80
2018-10-17T00:20:34.475Z,11.40
2018-10-17T00:23:02.835Z,11.63
2018-10-17T00:25:31.152Z,17.17
2018-10-17T00:27:59.471Z,15.58
2018-10-17T00:30:27.806Z,17.50
2018-10-17T00:32:56.581Z,16.55
2018-10-17T00:35:25.538Z,11.15
2018-10-17T00:37:53.926Z,21.15
2018-10-17T00:40:24.467Z,18.70
2018-10-17T00:42:53.432Z,23.07
2018-10-17T00:45:21.755Z,11.50
2018-10-17T00:47:50.074Z,14.95
2018-10-17T00:50:18.436Z,19.77
2018-10-17T00:52:46.777Z,15.88
2018-10-17T00:55:15.165Z,14.85
2018-10-17T00:57:43.395Z,13.10
2018-10-17T09:45:13.744Z,5.78
2018-10-17T09:47:42.469Z,5.85
2018-10-17T09:50:11.246Z,6.00
2018-10-17T09:52:39.565Z,6.22
2018-10-17T09:55:08.483Z,6.20
2018-10-17T09:57:36.879Z,5.40
2018-10-17T10:00:11.461Z,5.83
2018-10-17T10:02:39.735Z,6.12
2018-10-17T10:05:08.123Z,6.08
2018-10-17T10:07:36.471Z,6.40
2018-10-17T10:10:05.616Z,5.37
2018-10-17T10:12:33.888Z,5.62
2018-10-17T10:15:02.269Z,5.20
2018-10-17T10:17:30.714Z,5.62
2018-10-17T10:19:59.035Z,4.95
2018-10-17T10:22:27.457Z,4.95
2018-10-17T10:24:55.820Z,6.55
2018-10-17T10:27:24.177Z,5.25
2018-10-17T10:29:52.618Z,5.20
2018-10-17T10:32:20.818Z,5.22
2018-10-17T10:34:49.217Z,5.03
2018-10-17T10:37:17.779Z,6.35
2018-10-17T10:39:46.336Z,5.58
2018-10-17T10:42:14.820Z,13.40
2018-10-17T10:44:43.126Z,5.50
2018-10-17T10:47:11.529Z,6.30
2018-10-17T10:49:39.855Z,5.83
2018-10-17T10:52:08.215Z,5.33
2018-10-17T10:54:36.514Z,5.55
2018-10-17T10:57:05.030Z,5.45
2018-10-17T10:59:33.512Z,5.65
2018-10-17T11:02:01.771Z,5.28
2018-10-17T11:04:30.078Z,4.12
2018-10-17T11:06:58.404Z,5.22
2018-10-17T11:09:27.020Z,4.83
2018-10-17T11:11:55.366Z,4.15
2018-10-17T11:14:23.710Z,4.85
2018-10-17T11:16:52.087Z,4.70
2018-10-17T11:19:20.473Z,4.45
2018-10-17T11:21:48.830Z,4.15
2018-10-17T11:24:17.149Z,4.70
2018-10-17T11:26:45.465Z,6.22
2018-10-17T11:29:13.835Z,6.20
2018-10-17T11:31:42.144Z,5.17
2018-10-17T11:34:10.512Z,4.70
2018-10-17T11:36:38.957Z,7.25
2018-10-17T11:39:08.844Z,5.45
2018-10-17T11:41:37.111Z,5.92
2018-10-17T11:44:05.756Z,5.95
2018-10-17T11:46:34.164Z,4.60
2018-10-17T11:49:02.503Z,5.03
2018-10-17T11:51:30.844Z,7.35
2018-10-17T11:53:59.200Z,5.47
2018-10-17T11:56:27.521Z,5.37
2018-10-17T11:58:55.958Z,5.90
2018-10-17T12:01:24.407Z,6.50
2018-10-17T12:03:52.929Z,6.53
2018-10-17T12:06:21.137Z,5.55
2018-10-17T12:08:49.446Z,3.60
2018-10-17T12:11:17.854Z,5.00
2018-10-17T12:13:46.152Z,4.45
2018-10-17T12:16:14.459Z,4.67
2018-10-17T12:18:42.819Z,3.90
2018-10-17T12:21:11.178Z,3.45
2018-10-17T12:23:39.462Z,7.20
2018-10-17T12:26:07.809Z,4.50
2018-10-17T12:28:36.285Z,4.00
2018-10-17T12:31:04.914Z,5.53
2018-10-17T12:33:34.056Z,4.35
2018-10-17T12:36:02.401Z,4.45
2018-10-17T12:38:31.652Z,4.00
2018-10-17T12:41:00.111Z,4.10
2018-10-17T12:43:28.315Z,3.98
2018-10-17T12:45:56.645Z,4.60
2018-10-17T12:48:25.002Z,4.45
2018-10-17T12:50:53.324Z,4.15
2018-10-17T12:53:24.413Z,3.98
2018-10-17T12:55:52.833Z,3.55
2018-10-17T12:58:21.247Z,4.20
2018-10-17T13:00:50.001Z,4.58
2018-10-17T13:03:18.369Z,4.80
2018-10-17T13:05:47.440Z,3.90
2018-10-17T13:08:15.897Z,4.28
2018-10-17T13:10:44.218Z,5.10
2018-10-17T13:13:13.427Z,4.42
2018-10-17T13:15:41.735Z,5.10
2018-10-17T13:18:10.109Z,4.47
2018-10-17T13:20:38.973Z,5.50
2018-10-17T13:23:07.407Z,4.00
2018-10-17T13:25:35.707Z,4.30
2018-10-17T13:28:04.079Z,4.83
2018-10-17T13:30:32.598Z,5.12
2018-10-17T13:33:00.961Z,4.97
2018-10-17T13:35:29.307Z,7.90
2018-10-17T13:37:57.612Z,6.37
2018-10-17T13:40:25.983Z,6.05
2018-10-17T13:42:54.345Z,5.55
2018-10-17T13:45:22.740Z,5.83
2018-10-17T13:47:52.038Z,5.70
2018-10-17T13:50:20.406Z,5.10
2018-10-17T13:52:48.775Z,5.30
2018-10-17T13:55:17.148Z,6.28
2018-10-17T13:57:45.492Z,5.58
2018-10-17T14:00:13.995Z,5.47
2018-10-17T14:02:43.531Z,5.55
2018-10-17T14:05:11.941Z,5.45
2018-10-17T14:07:40.340Z,5.10
2018-10-17T14:10:08.666Z,5.30
2018-10-17T14:12:37.232Z,5.53
2018-10-17T14:15:06.118Z,5.17
2018-10-17T14:17:34.399Z,5.17
2018-10-17T14:20:02.787Z,5.55
2018-10-17T14:22:31.180Z,6.03
2018-10-17T14:24:59.652Z,5.45
2018-10-17T14:27:28.035Z,4.70
2018-10-17T14:29:56.756Z,5.97
2018-10-17T14:32:24.986Z,5.42
2018-10-17T14:34:53.403Z,6.17
2018-10-17T14:37:21.778Z,5.85
2018-10-17T14:39:50.126Z,5.50
2018-10-17T14:42:18.631Z,6.37
2018-10-17T14:44:46.960Z,5.85
2018-10-17T14:47:15.327Z,6.00
2018-10-17T14:49:43.726Z,4.95
2018-10-17T14:52:12.376Z,5.08
2018-10-17T14:54:40.698Z,5.42
2018-10-17T14:57:09.135Z,5.55
2018-10-17T14:59:37.536Z,5.70
2018-10-17T15:02:06.491Z,6.20
2018-10-17T15:04:34.928Z,7.22
2018-10-17T15:07:03.237Z,6.70
2018-10-17T15:09:31.543Z,6.58
2018-10-17T15:11:59.920Z,6.00
2018-10-17T15:14:28.265Z,5.97
2018-10-17T15:16:56.940Z,6.80
2018-10-17T15:19:25.842Z,6.58
2018-10-17T15:21:54.168Z,6.35
2018-10-17T15:24:22.500Z,6.17
2018-10-17T15:26:50.862Z,6.97
2018-10-17T15:29:19.342Z,7.05
2018-10-17T15:31:47.725Z,5.60
2018-10-17T15:34:15.994Z,6.08
2018-10-17T15:36:44.338Z,6.30
2018-10-17T15:39:12.719Z,6.97
2018-10-17T15:41:40.941Z,6.17
2018-10-17T15:44:09.654Z,6.97
2018-10-17T15:46:38.028Z,6.80
2018-10-17T15:49:06.839Z,14.85
2018-10-17T15:51:35.142Z,6.62
2018-10-17T15:54:03.579Z,6.17
2018-10-17T15:56:31.864Z,5.87
2018-10-17T15:59:00.190Z,7.12
2018-10-17T16:01:28.987Z,6.15
2018-10-17T16:03:57.332Z,5.90
2018-10-17T16:06:25.711Z,5.30
2018-10-17T16:08:54.038Z,5.75
2018-10-17T16:11:22.429Z,5.45
2018-10-17T16:13:50.710Z,5.85
2018-10-17T16:16:19.045Z,5.30
2018-10-17T16:18:47.421Z,5.37
2018-10-17T16:21:15.742Z,4.80
2018-10-17T16:23:44.331Z,6.20
2018-10-17T16:26:14.708Z,6.25
2018-10-17T16:28:46.244Z,6.53
2018-10-17T16:31:15.717Z,5.78
2018-10-17T16:33:46.502Z,6.62
2018-10-17T16:36:17.830Z,5.58
2018-10-17T16:38:48.605Z,6.30
2018-10-17T16:41:18.560Z,6.40
2018-10-17T16:43:48.698Z,7.05
2018-10-17T16:46:19.234Z,5.97
2018-10-17T16:48:49.742Z,5.47
2018-10-17T16:51:20.258Z,6.62
2018-10-17T16:53:51.754Z,5.55
2018-10-17T16:56:21.303Z,6.72
2018-10-17T16:58:51.114Z,6.22
2018-10-17T17:01:20.538Z,6.62
2018-10-17T17:03:50.730Z,6.20
2018-10-17T17:06:20.247Z,5.60
2018-10-17T17:08:51.545Z,5.62
2018-10-17T17:11:23.170Z,5.67
2018-10-17T17:13:55.940Z,5.65
2018-10-17T17:16:26.021Z,6.37
2018-10-17T17:18:56.043Z,6.72
2018-10-17T17:21:26.060Z,6.37
2018-10-17T17:23:55.939Z,6.42
2018-10-17T17:26:25.310Z,6.75
2018-10-17T17:28:54.943Z,6.15
2018-10-17T17:31:23.302Z,7.35
2018-10-17T17:33:51.635Z,6.42
2018-10-17T17:36:20.048Z,6.80
2018-10-17T17:38:48.359Z,5.92
2018-10-17T17:41:16.711Z,7.67
2018-10-17T17:43:45.034Z,8.60
2018-10-17T17:46:13.443Z,7.55
2018-10-17T17:48:41.769Z,8.18
2018-10-17T17:51:10.134Z,7.95
2018-10-17T17:53:38.538Z,7.42
2018-10-17T17:56:06.873Z,8.18
2018-10-17T17:58:35.371Z,8.25
2018-10-17T18:01:03.703Z,7.65
2018-10-17T18:03:32.030Z,8.15
2018-10-17T18:06:00.397Z,7.83
2018-10-17T18:08:29.260Z,13.80
2018-10-17T18:11:02.265Z,12.55
2018-10-17T18:13:30.633Z,12.50
2018-10-17T18:15:59.085Z,14.73
2018-10-17T18:18:27.478Z,10.65
2018-10-17T18:20:55.910Z,9.35
2018-10-17T18:23:24.354Z,8.15
2018-10-17T18:25:52.735Z,9.38
2018-10-17T18:28:21.196Z,8.40
2018-10-17T18:30:49.530Z,8.00
2018-10-17T18:33:17.920Z,7.87
2018-10-17T18:35:46.304Z,8.98
2018-10-17T18:38:14.696Z,8.40
2018-10-17T18:40:43.543Z,8.85
2018-10-17T18:43:11.911Z,8.53
2018-10-17T18:45:40.447Z,8.35
2018-10-17T18:48:08.739Z,8.55
2018-10-17T18:50:37.077Z,7.78
2018-10-17T18:53:05.596Z,9.73
2018-10-17T18:55:34.034Z,8.53
2018-10-17T18:58:02.477Z,8.55
2018-10-17T19:00:30.891Z,8.60
2018-10-17T19:02:59.310Z,11.05
2018-10-17T19:05:27.895Z,17.10
2018-10-17T19:07:56.317Z,13.10
2018-10-17T19:10:24.950Z,14.28
2018-10-17T19:12:53.316Z,10.60
2018-10-17T19:15:21.703Z,9.65
2018-10-17T19:17:50.102Z,8.75
2018-10-17T19:20:18.446Z,8.90
2018-10-17T19:22:46.811Z,8.23
2018-10-17T19:25:15.174Z,9.03
2018-10-17T19:27:43.545Z,9.18
2018-10-17T19:30:11.948Z,8.65
2018-10-17T19:32:40.315Z,9.25
2018-10-17T19:35:09.065Z,7.72
2018-10-17T19:37:37.446Z,8.93
2018-10-17T19:40:07.036Z,8.93
2018-10-17T19:42:35.414Z,8.70
2018-10-17T19:45:03.936Z,9.35
2018-10-17T19:47:32.260Z,8.95
2018-10-17T19:50:00.634Z,9.75
2018-10-17T19:52:29.049Z,9.70
2018-10-17T19:54:57.410Z,9.00
2018-10-17T19:57:25.778Z,8.93
2018-10-17T19:59:54.287Z,8.60
2018-10-17T20:02:24.152Z,12.60
2018-10-17T20:04:52.585Z,11.00
2018-10-17T20:07:21.090Z,12.28
2018-10-17T20:09:49.520Z,8.70
2018-10-17T20:12:17.898Z,9.65
2018-10-17T20:14:46.286Z,9.48
2018-10-17T20:17:14.699Z,8.68
2018-10-17T20:19:43.093Z,8.65
2018-10-17T20:22:12.383Z,9.23
2018-10-17T20:24:41.179Z,8.40
2018-10-17T20:27:09.997Z,9.25
2018-10-17T20:29:38.523Z,9.48
2018-10-17T20:32:07.619Z,9.18
2018-10-17T20:34:35.978Z,8.60
2018-10-17T20:37:04.593Z,10.03
2018-10-17T20:39:32.973Z,10.23
2018-10-17T20:42:01.510Z,10.00
2018-10-17T20:44:29.835Z,9.45
2018-10-17T20:46:58.222Z,10.18
2018-10-17T20:49:26.808Z,9.85
2018-10-17T20:51:55.273Z,9.75
2018-10-17T20:54:23.702Z,9.30
2018-10-17T20:56:52.054Z,8.75
2018-10-17T20:59:20.421Z,8.70
2018-10-17T21:01:48.935Z,9.15
2018-10-17T21:04:17.184Z,9.98
2018-10-17T21:06:45.564Z,8.28
2018-10-17T21:09:14.950Z,8.75
2018-10-17T21:11:43.322Z,8.43
2018-10-17T21:14:12.086Z,9.13
2018-10-17T21:16:41.443Z,10.00
2018-10-17T21:19:10.158Z,8.70
2018-10-17T21:21:38.524Z,9.33
2018-10-17T21:24:07.483Z,9.58
2018-10-17T21:26:37.663Z,8.58
2018-10-17T21:29:06.463Z,9.03
2018-10-17T21:31:34.847Z,9.63
2018-10-17T21:34:03.206Z,8.90
2018-10-17T21:36:31.663Z,8.78
2018-10-17T21:39:00.031Z,10.20
2018-10-17T21:41:28.623Z,8.40
2018-10-17T21:43:57.972Z,9.58
2018-10-17T21:46:26.376Z,9.40
2018-10-17T21:48:54.733Z,9.43
2018-10-17T21:51:23.165Z,8.50
2018-10-17T21:53:51.540Z,8.20
2018-10-17T21:56:19.901Z,8.35
2018-10-17T21:58:48.336Z,8.80
2018-10-17T22:01:16.778Z,8.03
2018-10-17T22:03:45.154Z,9.15
2018-10-17T22:06:13.517Z,9.18
2018-10-17T22:08:41.873Z,9.38
2018-10-17T22:11:10.403Z,9.10
2018-10-17T22:13:38.858Z,9.53
2018-10-17T22:16:08.559Z,9.15
2018-10-17T22:18:36.992Z,9.43
2018-10-17T22:21:05.443Z,9.45
2018-10-17T22:23:33.883Z,9.78
2018-10-17T22:26:02.315Z,9.45
2018-10-17T22:28:30.655Z,11.48
2018-10-17T22:30:59.007Z,12.10
2018-10-17T22:33:27.351Z,12.98
2018-10-17T22:35:55.718Z,14.33
2018-10-17T22:38:24.070Z,14.78
2018-10-17T22:40:52.430Z,15.38
2018-10-17T22:43:20.785Z,14.83
2018-10-17T22:45:49.104Z,17.77
2018-10-17T22:48:18.186Z,22.05
2018-10-17T22:50:46.804Z,21.60
2018-10-17T22:53:15.309Z,24.50
2018-10-17T22:55:43.651Z,22.32
2018-10-17T22:58:11.993Z,21.50
2018-10-17T23:00:40.274Z,21.10
2018-10-17T23:03:09.697Z,26.33
2018-10-17T23:05:38.083Z,24.85
2018-10-17T23:08:07.456Z,21.57
2018-10-17T23:10:35.701Z,21.68
2018-10-17T23:13:04.337Z,23.35
2018-10-17T23:15:32.705Z,24.07
2018-10-17T23:18:00.989Z,23.62
2018-10-17T23:20:30.713Z,21.75
2018-10-17T23:22:59.078Z,26.15
2018-10-17T23:25:27.413Z,22.02
2018-10-17T23:27:55.728Z,22.65
2018-10-17T23:30:24.058Z,24.45
2018-10-17T23:32:52.383Z,23.85
2018-10-17T23:35:21.001Z,21.87
2018-10-17T23:37:49.385Z,19.37
2018-10-17T23:40:17.746Z,16.60
2018-10-17T23:42:46.122Z,15.10
2018-10-17T23:45:14.469Z,18.42
2018-10-17T23:47:42.869Z,19.27
2018-10-17T23:50:11.866Z,19.40
2018-10-17T23:52:40.214Z,20.02
2018-10-17T23:55:09.023Z,16.93
2018-10-17T23:57:37.406Z,14.78
